sensor_id;sensor_type;location;lat;lon;timestamp;temperature;humidity
44517;DHT22;30223;17.182;-96.766;2023-11-21T00:00:38;26.60;56.90
44517;DHT22;30223;17.182;-96.766;2023-11-21T00:03:05;26.60;56.90
44517;DHT22;30223;17.182;-96.766;2023-11-21T00:05:32;26.60;56.90
44517;DHT22;30223;17.182;-96.766;2023-11-21T00:07:59;26.60;56.90
44517;DHT22;30223;17.182;-96.766;2023-11-21T00:10:26;26.60;56.90
44517;DHT22;30223;17.182;-96.766;2023-11-21T00:12:52;26.60;56.90
44517;DHT22;30223;17.182;-96.766;2023-11-21T00:15:21;26.60;56.90
44517;DHT22;30223;17.182;-96.766;2023-11-21T00:17:47;26.60;56.90
44517;DHT22;30223;17.182;-96.766;2023-11-21T00:20:14;26.60;56.90
44517;DHT22;30223;17.182;-96.766;2023-11-21T00:22:41;26.60;56.90
44517;DHT22;30223;17.182;-96.766;2023-11-21T00:25:08;26.60;56.90
44517;DHT22;30223;17.182;-96.766;2023-11-21T00:27:36;26.60;57.00
44517;DHT22;30223;17.182;-96.766;2023-11-21T00:30:03;26.60;57.20
44517;DHT22;30223;17.182;-96.766;2023-11-21T00:32:36;26.60;57.10
44517;DHT22;30223;17.182;-96.766;2023-11-21T00:35:03;26.60;57.20
44517;DHT22;30223;17.182;-96.766;2023-11-21T00:37:30;26.60;57.20
44517;DHT22;30223;17.182;-96.766;2023-11-21T00:39:58;26.50;57.00
44517;DHT22;30223;17.182;-96.766;2023-11-21T00:42:24;26.50;56.70
44517;DHT22;30223;17.182;-96.766;2023-11-21T00:44:51;26.50;56.30
44517;DHT22;30223;17.182;-96.766;2023-11-21T00:47:18;26.50;55.90
44517;DHT22;30223;17.182;-96.766;2023-11-21T00:49:44;26.40;55.80
44517;DHT22;30223;17.182;-96.766;2023-11-21T00:52:11;26.40;55.80
44517;DHT22;30223;17.182;-96.766;2023-11-21T00:54:37;26.40;55.80
44517;DHT22;30223;17.182;-96.766;2023-11-21T00:57:04;26.40;56.30
44517;DHT22;30223;17.182;-96.766;2023-11-21T00:59:34;26.30;55.70
44517;DHT22;30223;17.182;-96.766;2023-11-21T01:02:01;26.30;55.50
44517;DHT22;30223;17.182;-96.766;2023-11-21T01:04:28;26.30;55.50
44517;DHT22;30223;17.182;-96.766;2023-11-21T01:06:54;26.30;55.50
44517;DHT22;30223;17.182;-96.766;2023-11-21T01:09:21;26.30;55.70
44517;DHT22;30223;17.182;-96.766;2023-11-21T01:11:47;26.20;55.40
44517;DHT22;30223;17.182;-96.766;2023-11-21T01:14:14;26.20;55.50
44517;DHT22;30223;17.182;-96.766;2023-11-21T01:16:41;26.20;55.50
44517;DHT22;30223;17.182;-96.766;2023-11-21T01:19:07;26.20;55.60
44517;DHT22;30223;17.182;-96.766;2023-11-21T01:21:35;26.20;55.60
44517;DHT22;30223;17.182;-96.766;2023-11-21T01:24:01;26.20;55.60
44517;DHT22;30223;17.182;-96.766;2023-11-21T01:26:28;26.10;55.70
44517;DHT22;30223;17.182;-96.766;2023-11-21T01:28:55;26.10;55.60
44517;DHT22;30223;17.182;-96.766;2023-11-21T01:31:21;26.10;55.70
44517;DHT22;30223;17.182;-96.766;2023-11-21T01:33:48;26.10;55.80
44517;DHT22;30223;17.182;-96.766;2023-11-21T01:36:14;26.10;55.80
44517;DHT22;30223;17.182;-96.766;2023-11-21T01:38:41;26.10;55.90
44517;DHT22;30223;17.182;-96.766;2023-11-21T01:41:08;26.00;55.80
44517;DHT22;30223;17.182;-96.766;2023-11-21T01:43:36;26.00;55.80
44517;DHT22;30223;17.182;-96.766;2023-11-21T01:46:03;26.00;55.80
44517;DHT22;30223;17.182;-96.766;2023-11-21T01:48:33;26.00;55.80
44517;DHT22;30223;17.182;-96.766;2023-11-21T01:51:00;26.00;55.90
44517;DHT22;30223;17.182;-96.766;2023-11-21T01:53:27;26.00;56.00
44517;DHT22;30223;17.182;-96.766;2023-11-21T01:55:55;26.00;56.00
44517;DHT22;30223;17.182;-96.766;2023-11-21T01:58:22;26.00;56.10
44517;DHT22;30223;17.182;-96.766;2023-11-21T02:00:49;26.00;56.00
44517;DHT22;30223;17.182;-96.766;2023-11-21T02:03:17;26.00;56.10
44517;DHT22;30223;17.182;-96.766;2023-11-21T02:05:44;25.90;56.10
44517;DHT22;30223;17.182;-96.766;2023-11-21T02:08:10;25.90;56.10
44517;DHT22;30223;17.182;-96.766;2023-11-21T02:10:37;25.90;56.10
44517;DHT22;30223;17.182;-96.766;2023-11-21T02:13:03;25.90;56.20
44517;DHT22;30223;17.182;-96.766;2023-11-21T02:15:30;25.90;56.30
44517;DHT22;30223;17.182;-96.766;2023-11-21T02:17:57;25.90;56.40
44517;DHT22;30223;17.182;-96.766;2023-11-21T02:20:25;25.90;56.40
44517;DHT22;30223;17.182;-96.766;2023-11-21T02:22:56;25.90;56.40
44517;DHT22;30223;17.182;-96.766;2023-11-21T02:25:28;25.90;56.40
44517;DHT22;30223;17.182;-96.766;2023-11-21T02:27:55;25.90;56.80
44517;DHT22;30223;17.182;-96.766;2023-11-21T02:30:22;25.90;56.90
44517;DHT22;30223;17.182;-96.766;2023-11-21T02:32:51;25.90;56.90
44517;DHT22;30223;17.182;-96.766;2023-11-21T02:35:23;25.90;56.90
44517;DHT22;30223;17.182;-96.766;2023-11-21T02:37:52;25.90;56.70
44517;DHT22;30223;17.182;-96.766;2023-11-21T02:40:19;25.90;56.70
44517;DHT22;30223;17.182;-96.766;2023-11-21T02:42:50;25.90;56.70
44517;DHT22;30223;17.182;-96.766;2023-11-21T02:45:18;25.90;56.70
44517;DHT22;30223;17.182;-96.766;2023-11-21T02:47:47;25.90;56.80
44517;DHT22;30223;17.182;-96.766;2023-11-21T02:50:15;25.90;56.80
44517;DHT22;30223;17.182;-96.766;2023-11-21T02:52:41;25.90;56.70
44517;DHT22;30223;17.182;-96.766;2023-11-21T02:55:08;25.80;56.70
44517;DHT22;30223;17.182;-96.766;2023-11-21T02:57:35;25.90;56.70
44517;DHT22;30223;17.182;-96.766;2023-11-21T03:00:01;25.80;56.60
44517;DHT22;30223;17.182;-96.766;2023-11-21T03:02:28;25.90;56.70
44517;DHT22;30223;17.182;-96.766;2023-11-21T03:04:55;25.90;56.90
44517;DHT22;30223;17.182;-96.766;2023-11-21T03:07:21;25.90;56.80
44517;DHT22;30223;17.182;-96.766;2023-11-21T03:09:48;25.90;57.20
44517;DHT22;30223;17.182;-96.766;2023-11-21T03:12:14;25.90;57.10
44517;DHT22;30223;17.182;-96.766;2023-11-21T03:14:42;25.80;57.10
44517;DHT22;30223;17.182;-96.766;2023-11-21T03:17:09;25.80;57.70
44517;DHT22;30223;17.182;-96.766;2023-11-21T03:19:35;25.80;57.80
44517;DHT22;30223;17.182;-96.766;2023-11-21T03:22:02;25.80;57.60
44517;DHT22;30223;17.182;-96.766;2023-11-21T03:24:30;25.80;57.40
44517;DHT22;30223;17.182;-96.766;2023-11-21T03:26:57;25.80;57.40
44517;DHT22;30223;17.182;-96.766;2023-11-21T03:29:23;25.80;57.30
44517;DHT22;30223;17.182;-96.766;2023-11-21T03:31:50;25.80;57.40
44517;DHT22;30223;17.182;-96.766;2023-11-21T03:34:26;25.80;57.40
44517;DHT22;30223;17.182;-96.766;2023-11-21T03:36:53;25.80;57.30
44517;DHT22;30223;17.182;-96.766;2023-11-21T03:39:22;25.80;57.30
44517;DHT22;30223;17.182;-96.766;2023-11-21T03:41:49;25.80;57.30
44517;DHT22;30223;17.182;-96.766;2023-11-21T03:44:16;25.80;57.70
44517;DHT22;30223;17.182;-96.766;2023-11-21T03:46:44;25.80;57.50
44517;DHT22;30223;17.182;-96.766;2023-11-21T03:49:10;25.70;57.60
44517;DHT22;30223;17.182;-96.766;2023-11-21T03:51:37;25.70;57.50
44517;DHT22;30223;17.182;-96.766;2023-11-21T03:54:04;25.70;57.30
44517;DHT22;30223;17.182;-96.766;2023-11-21T03:56:30;25.70;57.30
44517;DHT22;30223;17.182;-96.766;2023-11-21T03:58:57;25.70;57.20
44517;DHT22;30223;17.182;-96.766;2023-11-21T04:01:25;25.70;57.20
44517;DHT22;30223;17.182;-96.766;2023-11-21T04:03:52;25.70;57.20
44517;DHT22;30223;17.182;-96.766;2023-11-21T04:06:19;25.70;57.20
44517;DHT22;30223;17.182;-96.766;2023-11-21T04:08:46;25.60;57.10
44517;DHT22;30223;17.182;-96.766;2023-11-21T04:11:13;25.60;57.10
44517;DHT22;30223;17.182;-96.766;2023-11-21T04:13:40;25.60;57.20
44517;DHT22;30223;17.182;-96.766;2023-11-21T04:16:08;25.60;57.30
44517;DHT22;30223;17.182;-96.766;2023-11-21T04:18:38;25.60;57.50
44517;DHT22;30223;17.182;-96.766;2023-11-21T04:21:06;25.60;57.50
44517;DHT22;30223;17.182;-96.766;2023-11-21T04:23:34;25.60;57.90
44517;DHT22;30223;17.182;-96.766;2023-11-21T04:26:01;25.50;57.60
44517;DHT22;30223;17.182;-96.766;2023-11-21T04:28:28;25.60;57.60
44517;DHT22;30223;17.182;-96.766;2023-11-21T04:30:55;25.60;57.60
44517;DHT22;30223;17.182;-96.766;2023-11-21T04:33:21;25.50;57.40
44517;DHT22;30223;17.182;-96.766;2023-11-21T04:35:48;25.50;57.40
44517;DHT22;30223;17.182;-96.766;2023-11-21T04:38:15;25.50;57.50
44517;DHT22;30223;17.182;-96.766;2023-11-21T04:40:41;25.50;57.50
44517;DHT22;30223;17.182;-96.766;2023-11-21T04:43:08;25.50;57.60
44517;DHT22;30223;17.182;-96.766;2023-11-21T04:45:34;25.50;57.40
44517;DHT22;30223;17.182;-96.766;2023-11-21T04:48:01;25.50;57.50
44517;DHT22;30223;17.182;-96.766;2023-11-21T04:50:28;25.50;57.50
44517;DHT22;30223;17.182;-96.766;2023-11-21T04:52:54;25.50;57.60
44517;DHT22;30223;17.182;-96.766;2023-11-21T04:55:21;25.40;57.70
44517;DHT22;30223;17.182;-96.766;2023-11-21T04:57:47;25.40;57.50
44517;DHT22;30223;17.182;-96.766;2023-11-21T05:00:14;25.40;57.40
44517;DHT22;30223;17.182;-96.766;2023-11-21T05:02:42;25.40;57.60
44517;DHT22;30223;17.182;-96.766;2023-11-21T05:05:09;25.30;57.40
44517;DHT22;30223;17.182;-96.766;2023-11-21T05:07:36;25.30;57.40
44517;DHT22;30223;17.182;-96.766;2023-11-21T05:10:05;25.30;57.40
44517;DHT22;30223;17.182;-96.766;2023-11-21T05:12:38;25.30;57.50
44517;DHT22;30223;17.182;-96.766;2023-11-21T05:15:05;25.30;57.60
44517;DHT22;30223;17.182;-96.766;2023-11-21T05:17:39;25.30;57.50
44517;DHT22;30223;17.182;-96.766;2023-11-21T05:20:11;25.30;57.40
44517;DHT22;30223;17.182;-96.766;2023-11-21T05:22:39;25.30;57.40
44517;DHT22;30223;17.182;-96.766;2023-11-21T05:25:06;25.30;57.50
44517;DHT22;30223;17.182;-96.766;2023-11-21T05:27:34;25.30;57.40
44517;DHT22;30223;17.182;-96.766;2023-11-21T05:30:05;25.30;57.40
44517;DHT22;30223;17.182;-96.766;2023-11-21T05:32:32;25.30;57.50
44517;DHT22;30223;17.182;-96.766;2023-11-21T05:35:00;25.30;57.40
44517;DHT22;30223;17.182;-96.766;2023-11-21T05:37:27;25.20;57.30
44517;DHT22;30223;17.182;-96.766;2023-11-21T05:39:54;25.20;57.30
44517;DHT22;30223;17.182;-96.766;2023-11-21T05:42:23;25.20;57.30
44517;DHT22;30223;17.182;-96.766;2023-11-21T05:44:50;25.20;57.30
44517;DHT22;30223;17.182;-96.766;2023-11-21T05:47:17;25.20;57.30
44517;DHT22;30223;17.182;-96.766;2023-11-21T05:49:44;25.20;57.30
44517;DHT22;30223;17.182;-96.766;2023-11-21T05:52:11;25.20;57.30
44517;DHT22;30223;17.182;-96.766;2023-11-21T05:54:38;25.20;57.30
44517;DHT22;30223;17.182;-96.766;2023-11-21T05:57:04;25.10;57.20
44517;DHT22;30223;17.182;-96.766;2023-11-21T05:59:31;25.10;57.20
44517;DHT22;30223;17.182;-96.766;2023-11-21T06:01:57;25.10;57.20
44517;DHT22;30223;17.182;-96.766;2023-11-21T06:04:24;25.10;57.30
44517;DHT22;30223;17.182;-96.766;2023-11-21T06:06:54;25.10;57.20
44517;DHT22;30223;17.182;-96.766;2023-11-21T06:09:21;25.10;57.10
44517;DHT22;30223;17.182;-96.766;2023-11-21T06:11:48;25.00;57.10
44517;DHT22;30223;17.182;-96.766;2023-11-21T06:14:15;25.00;57.20
44517;DHT22;30223;17.182;-96.766;2023-11-21T06:16:43;25.00;57.20
44517;DHT22;30223;17.182;-96.766;2023-11-21T06:19:11;25.00;57.20
44517;DHT22;30223;17.182;-96.766;2023-11-21T06:21:38;25.00;57.30
44517;DHT22;30223;17.182;-96.766;2023-11-21T06:24:05;25.00;57.30
44517;DHT22;30223;17.182;-96.766;2023-11-21T06:26:33;25.00;57.20
44517;DHT22;30223;17.182;-96.766;2023-11-21T06:29:00;25.00;57.20
44517;DHT22;30223;17.182;-96.766;2023-11-21T06:31:29;25.00;57.30
44517;DHT22;30223;17.182;-96.766;2023-11-21T06:34:00;25.00;57.30
44517;DHT22;30223;17.182;-96.766;2023-11-21T06:36:26;24.90;57.30
44517;DHT22;30223;17.182;-96.766;2023-11-21T06:38:53;25.00;57.30
44517;DHT22;30223;17.182;-96.766;2023-11-21T06:41:23;24.90;57.30
44517;DHT22;30223;17.182;-96.766;2023-11-21T06:43:50;24.90;57.20
44517;DHT22;30223;17.182;-96.766;2023-11-21T06:46:17;24.90;57.20
44517;DHT22;30223;17.182;-96.766;2023-11-21T06:48:45;24.90;57.10
44517;DHT22;30223;17.182;-96.766;2023-11-21T06:51:12;24.90;57.30
44517;DHT22;30223;17.182;-96.766;2023-11-21T06:53:39;24.90;57.20
44517;DHT22;30223;17.182;-96.766;2023-11-21T06:56:17;24.90;57.20
44517;DHT22;30223;17.182;-96.766;2023-11-21T06:58:46;24.90;57.20
44517;DHT22;30223;17.182;-96.766;2023-11-21T07:01:14;24.90;57.20
44517;DHT22;30223;17.182;-96.766;2023-11-21T07:03:41;24.80;57.10
44517;DHT22;30223;17.182;-96.766;2023-11-21T07:06:08;24.90;57.10
44517;DHT22;30223;17.182;-96.766;2023-11-21T07:08:35;24.80;57.20
44517;DHT22;30223;17.182;-96.766;2023-11-21T07:11:01;24.80;57.20
44517;DHT22;30223;17.182;-96.766;2023-11-21T07:13:29;24.80;57.10
44517;DHT22;30223;17.182;-96.766;2023-11-21T07:15:57;24.80;57.80
44517;DHT22;30223;17.182;-96.766;2023-11-21T07:18:24;24.80;57.10
44517;DHT22;30223;17.182;-96.766;2023-11-21T07:20:51;24.80;57.10
44517;DHT22;30223;17.182;-96.766;2023-11-21T07:23:18;24.80;57.10
44517;DHT22;30223;17.182;-96.766;2023-11-21T07:25:44;24.80;57.00
44517;DHT22;30223;17.182;-96.766;2023-11-21T07:28:11;24.70;57.00
44517;DHT22;30223;17.182;-96.766;2023-11-21T07:30:37;24.80;57.00
44517;DHT22;30223;17.182;-96.766;2023-11-21T07:33:04;24.80;57.00
44517;DHT22;30223;17.182;-96.766;2023-11-21T07:35:31;24.70;56.90
44517;DHT22;30223;17.182;-96.766;2023-11-21T07:37:58;24.70;56.90
44517;DHT22;30223;17.182;-96.766;2023-11-21T07:40:24;24.70;57.00
44517;DHT22;30223;17.182;-96.766;2023-11-21T07:42:51;24.70;57.00
44517;DHT22;30223;17.182;-96.766;2023-11-21T07:45:17;24.70;56.90
44517;DHT22;30223;17.182;-96.766;2023-11-21T07:47:44;24.70;57.00
44517;DHT22;30223;17.182;-96.766;2023-11-21T07:50:10;24.70;57.00
44517;DHT22;30223;17.182;-96.766;2023-11-21T07:52:37;24.60;56.90
44517;DHT22;30223;17.182;-96.766;2023-11-21T07:55:05;24.60;56.90
44517;DHT22;30223;17.182;-96.766;2023-11-21T07:57:31;24.60;56.90
44517;DHT22;30223;17.182;-96.766;2023-11-21T07:59:58;24.60;56.90
44517;DHT22;30223;17.182;-96.766;2023-11-21T08:02:24;24.60;56.90
44517;DHT22;30223;17.182;-96.766;2023-11-21T08:04:52;24.50;56.90
44517;DHT22;30223;17.182;-96.766;2023-11-21T08:07:18;24.60;56.90
44517;DHT22;30223;17.182;-96.766;2023-11-21T08:09:45;24.60;56.90
44517;DHT22;30223;17.182;-96.766;2023-11-21T08:12:12;24.50;56.90
44517;DHT22;30223;17.182;-96.766;2023-11-21T08:14:40;24.50;57.00
44517;DHT22;30223;17.182;-96.766;2023-11-21T08:17:10;24.50;56.90
44517;DHT22;30223;17.182;-96.766;2023-11-21T08:19:39;24.50;56.90
44517;DHT22;30223;17.182;-96.766;2023-11-21T08:22:08;24.50;56.90
44517;DHT22;30223;17.182;-96.766;2023-11-21T08:24:37;24.50;56.90
44517;DHT22;30223;17.182;-96.766;2023-11-21T08:27:04;24.50;56.90
44517;DHT22;30223;17.182;-96.766;2023-11-21T08:29:30;24.50;56.90
44517;DHT22;30223;17.182;-96.766;2023-11-21T08:31:57;24.50;56.90
44517;DHT22;30223;17.182;-96.766;2023-11-21T08:34:24;24.50;56.90
44517;DHT22;30223;17.182;-96.766;2023-11-21T08:36:51;24.40;56.80
44517;DHT22;30223;17.182;-96.766;2023-11-21T08:39:18;24.40;56.90
44517;DHT22;30223;17.182;-96.766;2023-11-21T08:41:45;24.40;56.90
44517;DHT22;30223;17.182;-96.766;2023-11-21T08:44:11;24.40;56.80
44517;DHT22;30223;17.182;-96.766;2023-11-21T08:46:38;24.40;56.90
44517;DHT22;30223;17.182;-96.766;2023-11-21T08:49:05;24.40;56.80
44517;DHT22;30223;17.182;-96.766;2023-11-21T08:51:32;24.30;56.80
44517;DHT22;30223;17.182;-96.766;2023-11-21T08:53:59;24.30;56.80
44517;DHT22;30223;17.182;-96.766;2023-11-21T08:56:28;24.30;56.80
44517;DHT22;30223;17.182;-96.766;2023-11-21T08:58:55;24.30;56.80
44517;DHT22;30223;17.182;-96.766;2023-11-21T09:01:22;24.30;56.70
44517;DHT22;30223;17.182;-96.766;2023-11-21T09:03:49;24.30;56.70
44517;DHT22;30223;17.182;-96.766;2023-11-21T09:06:16;24.30;56.70
44517;DHT22;30223;17.182;-96.766;2023-11-21T09:08:43;24.30;56.70
44517;DHT22;30223;17.182;-96.766;2023-11-21T09:11:09;24.30;56.70
44517;DHT22;30223;17.182;-96.766;2023-11-21T09:13:36;24.30;56.80
44517;DHT22;30223;17.182;-96.766;2023-11-21T09:16:03;24.30;56.70
44517;DHT22;30223;17.182;-96.766;2023-11-21T09:18:29;24.30;56.70
44517;DHT22;30223;17.182;-96.766;2023-11-21T09:20:56;24.20;56.70
44517;DHT22;30223;17.182;-96.766;2023-11-21T09:23:24;24.20;56.60
44517;DHT22;30223;17.182;-96.766;2023-11-21T09:25:51;24.20;56.70
44517;DHT22;30223;17.182;-96.766;2023-11-21T09:28:18;24.20;56.70
44517;DHT22;30223;17.182;-96.766;2023-11-21T09:30:44;24.20;56.70
44517;DHT22;30223;17.182;-96.766;2023-11-21T09:33:11;24.20;57.00
44517;DHT22;30223;17.182;-96.766;2023-11-21T09:35:38;24.20;56.60
44517;DHT22;30223;17.182;-96.766;2023-11-21T09:38:04;24.20;56.60
44517;DHT22;30223;17.182;-96.766;2023-11-21T09:40:37;24.20;56.60
44517;DHT22;30223;17.182;-96.766;2023-11-21T09:43:12;24.20;56.60
44517;DHT22;30223;17.182;-96.766;2023-11-21T09:45:46;24.10;56.60
44517;DHT22;30223;17.182;-96.766;2023-11-21T09:48:17;24.20;56.60
44517;DHT22;30223;17.182;-96.766;2023-11-21T09:50:44;24.10;56.60
44517;DHT22;30223;17.182;-96.766;2023-11-21T09:53:19;24.10;56.60
44517;DHT22;30223;17.182;-96.766;2023-11-21T09:55:52;24.10;56.50
44517;DHT22;30223;17.182;-96.766;2023-11-21T09:58:20;24.10;56.50
44517;DHT22;30223;17.182;-96.766;2023-11-21T10:00:49;24.10;56.60
44517;DHT22;30223;17.182;-96.766;2023-11-21T10:03:16;24.10;56.60
44517;DHT22;30223;17.182;-96.766;2023-11-21T10:05:43;24.00;56.50
44517;DHT22;30223;17.182;-96.766;2023-11-21T10:08:11;24.10;56.50
44517;DHT22;30223;17.182;-96.766;2023-11-21T10:10:48;24.00;56.50
44517;DHT22;30223;17.182;-96.766;2023-11-21T10:13:15;24.00;56.50
44517;DHT22;30223;17.182;-96.766;2023-11-21T10:15:45;24.00;56.50
44517;DHT22;30223;17.182;-96.766;2023-11-21T10:18:18;24.00;56.50
44517;DHT22;30223;17.182;-96.766;2023-11-21T10:20:45;24.00;56.50
44517;DHT22;30223;17.182;-96.766;2023-11-21T10:23:22;24.00;56.50
44517;DHT22;30223;17.182;-96.766;2023-11-21T10:25:49;24.00;56.60
44517;DHT22;30223;17.182;-96.766;2023-11-21T10:28:17;24.00;56.50
44517;DHT22;30223;17.182;-96.766;2023-11-21T10:30:45;24.00;56.60
44517;DHT22;30223;17.182;-96.766;2023-11-21T10:33:12;24.00;56.60
44517;DHT22;30223;17.182;-96.766;2023-11-21T10:38:06;23.90;56.50
44517;DHT22;30223;17.182;-96.766;2023-11-21T10:40:40;23.90;56.50
44517;DHT22;30223;17.182;-96.766;2023-11-21T10:43:09;23.90;56.60
44517;DHT22;30223;17.182;-96.766;2023-11-21T10:45:37;23.90;56.60
44517;DHT22;30223;17.182;-96.766;2023-11-21T10:48:08;23.90;56.60
44517;DHT22;30223;17.182;-96.766;2023-11-21T10:50:37;23.90;56.60
44517;DHT22;30223;17.182;-96.766;2023-11-21T10:53:04;23.90;56.60
44517;DHT22;30223;17.182;-96.766;2023-11-21T10:55:35;23.90;56.60
44517;DHT22;30223;17.182;-96.766;2023-11-21T10:58:05;23.80;56.60
44517;DHT22;30223;17.182;-96.766;2023-11-21T11:00:34;23.80;56.50
44517;DHT22;30223;17.182;-96.766;2023-11-21T11:03:01;23.80;56.60
44517;DHT22;30223;17.182;-96.766;2023-11-21T11:05:30;23.80;56.60
44517;DHT22;30223;17.182;-96.766;2023-11-21T11:08:06;23.80;56.60
44517;DHT22;30223;17.182;-96.766;2023-11-21T11:10:33;23.80;56.60
44517;DHT22;30223;17.182;-96.766;2023-11-21T11:13:00;23.80;56.60
44517;DHT22;30223;17.182;-96.766;2023-11-21T11:15:28;23.80;56.60
44517;DHT22;30223;17.182;-96.766;2023-11-21T11:17:55;23.80;56.60
44517;DHT22;30223;17.182;-96.766;2023-11-21T11:20:25;23.80;56.60
44517;DHT22;30223;17.182;-96.766;2023-11-21T11:23:05;23.70;56.50
44517;DHT22;30223;17.182;-96.766;2023-11-21T11:28:47;23.70;56.50
44517;DHT22;30223;17.182;-96.766;2023-11-21T11:36:57;23.70;56.50
44517;DHT22;30223;17.182;-96.766;2023-11-21T11:39:29;23.60;56.50
44517;DHT22;30223;17.182;-96.766;2023-11-21T11:41:58;23.60;56.50
44517;DHT22;30223;17.182;-96.766;2023-11-21T11:52:37;23.60;56.50
44517;DHT22;30223;17.182;-96.766;2023-11-21T11:55:25;23.60;56.50
44517;DHT22;30223;17.182;-96.766;2023-11-21T11:57:55;23.60;56.50
44517;DHT22;30223;17.182;-96.766;2023-11-21T12:03:06;23.50;56.50
44517;DHT22;30223;17.182;-96.766;2023-11-21T12:05:34;23.50;56.50
44517;DHT22;30223;17.182;-96.766;2023-11-21T12:08:06;23.50;56.50
44517;DHT22;30223;17.182;-96.766;2023-11-21T12:10:35;23.50;56.60
44517;DHT22;30223;17.182;-96.766;2023-11-21T12:13:05;23.50;56.60
44517;DHT22;30223;17.182;-96.766;2023-11-21T12:15:36;23.50;56.60
44517;DHT22;30223;17.182;-96.766;2023-11-21T12:18:04;23.50;56.60
44517;DHT22;30223;17.182;-96.766;2023-11-21T12:20:31;23.50;56.60
44517;DHT22;30223;17.182;-96.766;2023-11-21T12:22:59;23.50;56.60
44517;DHT22;30223;17.182;-96.766;2023-11-21T12:25:28;23.40;56.60
44517;DHT22;30223;17.182;-96.766;2023-11-21T12:27:58;23.40;56.60
44517;DHT22;30223;17.182;-96.766;2023-11-21T12:30:30;23.40;56.60
44517;DHT22;30223;17.182;-96.766;2023-11-21T12:32:59;23.40;56.60
44517;DHT22;30223;17.182;-96.766;2023-11-21T12:35:28;23.40;56.70
44517;DHT22;30223;17.182;-96.766;2023-11-21T12:37:56;23.40;56.60
44517;DHT22;30223;17.182;-96.766;2023-11-21T12:40:26;23.40;56.70
44517;DHT22;30223;17.182;-96.766;2023-11-21T12:42:55;23.40;56.70
44517;DHT22;30223;17.182;-96.766;2023-11-21T12:45:23;23.40;56.70
44517;DHT22;30223;17.182;-96.766;2023-11-21T12:48:01;23.30;56.60
44517;DHT22;30223;17.182;-96.766;2023-11-21T12:50:31;23.30;56.60
44517;DHT22;30223;17.182;-96.766;2023-11-21T12:53:01;23.30;56.90
44517;DHT22;30223;17.182;-96.766;2023-11-21T12:55:31;23.40;56.70
44517;DHT22;30223;17.182;-96.766;2023-11-21T12:57:59;23.30;56.60
44517;DHT22;30223;17.182;-96.766;2023-11-21T13:00:36;23.30;56.70
44517;DHT22;30223;17.182;-96.766;2023-11-21T13:03:04;23.30;56.70
44517;DHT22;30223;17.182;-96.766;2023-11-21T13:05:35;23.30;56.70
44517;DHT22;30223;17.182;-96.766;2023-11-21T13:08:06;23.30;56.70
44517;DHT22;30223;17.182;-96.766;2023-11-21T13:10:40;23.30;56.80
44517;DHT22;30223;17.182;-96.766;2023-11-21T13:13:10;23.30;56.70
44517;DHT22;30223;17.182;-96.766;2023-11-21T13:15:40;23.20;56.70
44517;DHT22;30223;17.182;-96.766;2023-11-21T13:18:07;23.20;56.70
44517;DHT22;30223;17.182;-96.766;2023-11-21T13:20:35;23.20;56.80
44517;DHT22;30223;17.182;-96.766;2023-11-21T13:23:08;23.20;56.80
44517;DHT22;30223;17.182;-96.766;2023-11-21T13:25:34;23.20;56.80
44517;DHT22;30223;17.182;-96.766;2023-11-21T13:28:03;23.20;56.80
44517;DHT22;30223;17.182;-96.766;2023-11-21T13:30:30;23.20;56.90
44517;DHT22;30223;17.182;-96.766;2023-11-21T13:33:00;23.20;56.90
44517;DHT22;30223;17.182;-96.766;2023-11-21T13:35:35;23.20;56.90
44517;DHT22;30223;17.182;-96.766;2023-11-21T13:38:10;23.10;57.00
44517;DHT22;30223;17.182;-96.766;2023-11-21T13:40:40;23.10;57.00
44517;DHT22;30223;17.182;-96.766;2023-11-21T13:43:13;23.10;57.10
44517;DHT22;30223;17.182;-96.766;2023-11-21T13:45:43;23.10;57.10
44517;DHT22;30223;17.182;-96.766;2023-11-21T13:48:11;23.10;57.20
44517;DHT22;30223;17.182;-96.766;2023-11-21T13:50:43;23.10;57.20
44517;DHT22;30223;17.182;-96.766;2023-11-21T13:53:27;23.10;57.20
44517;DHT22;30223;17.182;-96.766;2023-11-21T13:55:54;23.10;57.30
44517;DHT22;30223;17.182;-96.766;2023-11-21T13:58:23;23.00;57.30
44517;DHT22;30223;17.182;-96.766;2023-11-21T14:01:10;23.00;57.30
44517;DHT22;30223;17.182;-96.766;2023-11-21T14:04:04;23.00;57.50
44517;DHT22;30223;17.182;-96.766;2023-11-21T14:06:52;23.00;57.60
44517;DHT22;30223;17.182;-96.766;2023-11-21T14:09:24;23.00;57.60
44517;DHT22;30223;17.182;-96.766;2023-11-21T14:11:55;23.00;57.80
44517;DHT22;30223;17.182;-96.766;2023-11-21T14:14:24;23.00;58.00
44517;DHT22;30223;17.182;-96.766;2023-11-21T14:16:56;23.00;58.00
44517;DHT22;30223;17.182;-96.766;2023-11-21T14:19:25;23.00;58.20
44517;DHT22;30223;17.182;-96.766;2023-11-21T14:21:58;23.00;58.20
44517;DHT22;30223;17.182;-96.766;2023-11-21T14:24:25;23.00;58.30
44517;DHT22;30223;17.182;-96.766;2023-11-21T14:26:52;23.00;58.40
44517;DHT22;30223;17.182;-96.766;2023-11-21T14:29:19;23.00;59.20
44517;DHT22;30223;17.182;-96.766;2023-11-21T14:31:46;23.00;58.70
44517;DHT22;30223;17.182;-96.766;2023-11-21T14:34:13;23.00;58.80
44517;DHT22;30223;17.182;-96.766;2023-11-21T14:36:41;23.00;58.80
44517;DHT22;30223;17.182;-96.766;2023-11-21T14:39:09;23.00;59.10
44517;DHT22;30223;17.182;-96.766;2023-11-21T14:41:46;23.00;59.20
44517;DHT22;30223;17.182;-96.766;2023-11-21T14:44:13;23.00;59.20
44517;DHT22;30223;17.182;-96.766;2023-11-21T14:46:41;23.00;59.30
44517;DHT22;30223;17.182;-96.766;2023-11-21T14:49:12;23.00;59.30
44517;DHT22;30223;17.182;-96.766;2023-11-21T14:51:51;23.00;59.40
44517;DHT22;30223;17.182;-96.766;2023-11-21T14:54:48;23.00;59.50
44517;DHT22;30223;17.182;-96.766;2023-11-21T14:57:25;23.00;59.50
44517;DHT22;30223;17.182;-96.766;2023-11-21T14:59:53;23.00;59.60
44517;DHT22;30223;17.182;-96.766;2023-11-21T15:02:24;23.00;59.60
44517;DHT22;30223;17.182;-96.766;2023-11-21T15:05:16;23.10;59.70
44517;DHT22;30223;17.182;-96.766;2023-11-21T15:07:44;23.10;59.70
44517;DHT22;30223;17.182;-96.766;2023-11-21T15:10:15;23.10;59.70
44517;DHT22;30223;17.182;-96.766;2023-11-21T15:12:42;23.10;59.70
44517;DHT22;30223;17.182;-96.766;2023-11-21T15:15:09;23.10;59.80
44517;DHT22;30223;17.182;-96.766;2023-11-21T15:17:37;23.10;59.80
44517;DHT22;30223;17.182;-96.766;2023-11-21T15:20:06;23.10;59.80
44517;DHT22;30223;17.182;-96.766;2023-11-21T15:22:34;23.10;59.80
44517;DHT22;30223;17.182;-96.766;2023-11-21T15:25:01;23.10;59.70
44517;DHT22;30223;17.182;-96.766;2023-11-21T15:27:33;23.10;59.80
44517;DHT22;30223;17.182;-96.766;2023-11-21T15:30:00;23.10;59.90
44517;DHT22;30223;17.182;-96.766;2023-11-21T15:32:27;23.20;60.00